Weather reports worldwide

Advertisment
Le Puy, France (7471): temperature & dewpoint: 08.10.2019 14:00:00 - 14.10.2019 14:00:00 (CEST)Le Puy, France (7471): temperature 5cm: 08.10.2019 14:00:00 - 14.10.2019 14:00:00 (CEST)Le Puy, France (7471): temperature -20cm & temperature -100cm: 08.10.2019 14:00:00 - 14.10.2019 14:00:00 (CEST)Le Puy, France (7471): wind speed & gusts: 08.10.2019 14:00:00 - 14.10.2019 14:00:00 (CEST)Le Puy, France (7471): wind direction: 08.10.2019 14:00:00 - 14.10.2019 14:00:00 (CEST)Le Puy, France (7471): visibility: 08.10.2019 14:00:00 - 14.10.2019 14:00:00 (CEST)Le Puy, France (7471): sunshine duration: 08.10.2019 14:00:00 - 14.10.2019 14:00:00 (CEST)Le Puy, France (7471): precipitation: 08.10.2019 14:00:00 - 14.10.2019 14:00:00 (CEST)
Date & Time tt [°C] td [°C] tt 5cm [°C] tt -20cm [°C] tt -100cm [°C] ff [km/h] ff [kn] fx [km/h] fx [kn] dd vv [km] sd [min] rr [mm]
14.10.2019 14:00:00 - - - - - - - - - - - - -
14.10.2019 13:00:00 18,4 11,9 20,2 14,1 14,5 22 12 58 31 S 20 40 0,0
14.10.2019 12:00:00 17,5 12,2 19,2 14,2 14,5 25 13 55 30 SSE 20 28 0,0
14.10.2019 11:00:00 17,0 11,7 20,6 14,2 14,5 24 13 50 27 SSE 20 58 0,0
14.10.2019 10:00:00 16,8 11,3 15,7 14,2 14,5 19 10 42 23 SSE 20 50 0,0
14.10.2019 09:00:00 15,0 10,8 14,3 14,2 14,5 16 8 44 24 S 20 3 0,0
14.10.2019 08:00:00 14,5 10,5 14,5 14,3 14,5 25 14 40 22 SE 20 0 0,0
14.10.2019 07:00:00 14,5 10,3 13,2 14,3 14,5 18 10 41 22 SE 20 0 0,0
14.10.2019 06:00:00 13,8 9,8 12,7 14,4 14,5 18 10 41 22 S 20 0 0,0
14.10.2019 05:00:00 13,8 9,4 12,7 14,4 14,5 16 8 43 23 S 20 0 0,0
14.10.2019 04:00:00 14,2 9,6 13,6 14,5 14,5 22 12 45 24 SSE 20 0 0,0
14.10.2019 03:00:00 14,4 10,4 13,7 14,4 14,5 23 12 49 26 SSE 20 0 0,0
14.10.2019 02:00:00 14,5 9,7 13,9 14,5 14,5 22 12 46 25 SSE 20 0 0,0
14.10.2019 01:00:00 14,8 11,0 13,8 14,5 14,5 12 7 38 20 SSE 20 0 0,0
14.10.2019 00:00:00 14,9 10,9 14,1 14,5 14,5 16 9 36 20 S 20 0 0,0
13.10.2019 23:00:00 14,8 10,4 13,8 14,5 14,5 15 8 39 21 S 20 0 0,0
13.10.2019 22:00:00 14,5 9,3 13,3 14,4 14,5 14 7 32 18 S 20 0 0,0
13.10.2019 21:00:00 14,3 9,3 13,3 14,4 14,5 11 6 36 19 SSE 20 0 0,0
13.10.2019 20:00:00 15,1 10,7 14,5 14,3 14,5 18 10 55 30 SSE 20 0 0,0
13.10.2019 19:00:00 15,6 10,8 15,3 14,1 14,5 19 10 43 23 S 20 27 0,0
13.10.2019 18:00:00 16,6 10,9 18,2 14,0 14,5 18 10 38 21 SSE 20 56 0,0
13.10.2019 17:00:00 16,9 11,0 17,5 13,8 14,5 22 12 45 24 SSE 20 5 0,0
13.10.2019 16:00:00 17,9 11,5 20,7 13,7 14,5 21 11 40 21 SE 20 56 0,0
13.10.2019 15:00:00 18,2 11,0 23,0 13,7 14,5 24 13 49 26 SSE 20 60 0,0
13.10.2019 14:00:00 18,4 10,7 22,4 13,6 14,5 22 12 51 28 SSE 20 60 0,0
13.10.2019 13:00:00 17,5 10,6 21,3 13,6 14,5 27 14 50 27 SSE 20 60 0,0
13.10.2019 12:00:00 17,3 11,1 20,0 13,6 14,6 21 12 40 22 SE 20 60 0,0
13.10.2019 11:00:00 16,0 11,2 18,7 13,6 14,6 18 10 45 25 SE 20 58 0,0
13.10.2019 10:00:00 15,5 11,1 14,4 13,6 14,5 18 10 36 19 SSE 20 60 0,0
13.10.2019 09:00:00 13,4 10,0 12,1 13,7 14,5 12 6 27 15 ESE 20 37 0,0
13.10.2019 08:00:00 12,6 8,9 11,6 13,7 14,6 12 6 24 13 ESE 20 0 0,0
13.10.2019 07:00:00 12,5 8,4 11,9 13,7 14,6 13 7 34 18 S 20 0 0,0
13.10.2019 06:00:00 13,2 8,7 12,8 13,7 14,6 20 11 45 24 SSE 20 0 0,0
13.10.2019 05:00:00 13,6 8,8 13,2 13,7 14,6 23 13 43 23 SSE 20 0 0,0
13.10.2019 04:00:00 14,3 10,1 14,1 13,7 14,6 19 10 36 19 SE 20 0 0,0
13.10.2019 03:00:00 14,7 10,7 14,0 13,7 14,6 13 7 33 18 SE 20 0 0,0
13.10.2019 02:00:00 14,8 11,2 13,9 13,7 14,6 16 9 32 17 SE 20 0 0,0
13.10.2019 01:00:00 14,7 11,5 13,9 13,6 14,6 16 9 38 21 ESE 20 0 0,0
13.10.2019 00:00:00 14,8 11,6 13,9 13,6 14,6 11 6 31 17 SE 20 0 0,0
12.10.2019 23:00:00 14,8 11,8 14,5 13,6 14,6 14 8 43 23 S 20 0 0,0
12.10.2019 22:00:00 15,0 12,1 14,4 13,5 14,6 16 9 42 23 SSE 20 0 0,0
12.10.2019 21:00:00 15,0 12,1 14,2 13,4 14,6 7 4 32 17 SE 20 0 0,0
12.10.2019 20:00:00 15,4 12,0 15,0 13,4 14,6 11 6 35 19 SSE 20 0 0,0
12.10.2019 19:00:00 16,2 12,2 16,3 13,3 14,6 21 12 36 20 SSE 20 30 0,0
12.10.2019 18:00:00 18,7 12,2 19,1 13,2 14,6 9 5 42 23 SSE 20 45 0,0
12.10.2019 17:00:00 19,1 12,4 20,4 13,1 14,6 19 11 42 23 S 20 11 0,0
12.10.2019 16:00:00 19,6 12,4 21,3 13,0 14,6 16 9 44 24 S 20 0 0,0
12.10.2019 15:00:00 19,3 12,6 20,7 13,0 14,6 13 7 38 21 S 20 0 0,0
12.10.2019 14:00:00 18,9 12,4 19,9 13,0 14,6 10 5 41 22 S 20 0 0,0
12.10.2019 13:00:00 18,3 12,5 19,6 13,0 14,6 9 5 49 26 SSE 20 0 0,0
12.10.2019 12:00:00 18,5 12,5 17,6 13,0 14,6 21 12 49 26 S 20 0 0,0
12.10.2019 11:00:00 17,1 12,2 18,1 13,1 14,6 17 9 42 23 SSE 20 1 0,0
12.10.2019 10:00:00 17,7 12,4 15,7 13,1 14,6 11 6 31 17 SE 20 34 0,0
12.10.2019 09:00:00 15,2 12,1 8,0 13,2 14,6 21 12 41 22 SSE 20 29 0,0
12.10.2019 08:00:00 9,3 8,8 7,2 13,3 14,6 2 1 7 4 WSW 20 0 0,0
12.10.2019 07:00:00 9,2 8,7 7,0 13,4 14,6 2 1 6 4 W 18 0 0,0
12.10.2019 06:00:00 9,0 7,9 6,7 13,5 14,6 0 0 9 5 N 20 0 0,0
12.10.2019 05:00:00 9,2 8,3 6,6 13,6 14,6 4 2 9 5 WSW 20 0 0,0
12.10.2019 04:00:00 8,9 7,2 5,0 13,6 14,6 5 3 10 5 WNW 20 0 0,0
12.10.2019 03:00:00 9,4 7,3 5,1 13,7 14,6 4 2 8 5 W 20 0 0,0
12.10.2019 02:00:00 9,2 7,1 5,0 13,7 14,6 5 3 8 4 NW 20 0 0,0
12.10.2019 01:00:00 8,9 6,2 4,3 13,8 14,6 4 2 11 6 NNE 20 0 0,0
12.10.2019 00:00:00 9,3 5,8 5,9 13,7 14,6 4 2 11 6 NNW 20 0 0,0
11.10.2019 23:00:00 10,1 7,0 7,4 13,8 14,7 5 3 12 6 S 20 0 0,0
11.10.2019 22:00:00 11,6 8,1 6,1 13,7 14,6 6 3 12 6 ENE 20 0 0,0
11.10.2019 21:00:00 11,4 5,9 7,2 13,6 14,6 4 2 9 5 ESE 20 0 0,0
11.10.2019 20:00:00 12,1 5,3 8,7 13,5 14,7 3 2 17 9 S 20 0 0,0
11.10.2019 19:00:00 15,7 5,9 14,4 13,3 14,6 10 6 32 17 S 19 25 0,0
11.10.2019 18:00:00 19,1 6,2 20,8 13,2 14,7 18 10 31 17 SSE 20 60 0,0
11.10.2019 17:00:00 22,7 4,7 26,3 13,0 14,6 7 4 28 15 S 20 60 0,0
11.10.2019 16:00:00 23,3 5,2 28,0 12,8 14,6 11 6 30 16 S 20 60 0,0
11.10.2019 15:00:00 23,5 3,9 27,3 12,8 14,6 9 5 30 16 SW 20 60 0,0
11.10.2019 14:00:00 21,9 5,3 26,0 12,8 14,7 12 7 29 16 S 20 60 0,0
11.10.2019 13:00:00 17,2 7,0 23,6 12,8 14,7 5 3 10 5 NE 20 60 0,0
11.10.2019 12:00:00 12,9 7,6 17,1 12,9 14,7 3 2 7 4 NNE 20 60 0,0
11.10.2019 11:00:00 7,7 6,9 9,5 13,0 14,7 3 2 6 4 NE 20 47 0,0
11.10.2019 10:00:00 5,3 5,3 4,7 13,2 14,7 0 0 4 2 N 0,6 9 0,0
11.10.2019 09:00:00 3,3 3,3 2,1 13,3 14,7 2 1 4 2 SW 0,3 1 0,0
11.10.2019 08:00:00 2,3 2,3 0,4 13,4 14,7 3 2 7 4 WSW 0,3 0 0,0
11.10.2019 07:00:00 1,6 1,2 0,4 13,6 14,7 0 0 15 8 N 17 0 0,0
11.10.2019 06:00:00 1,9 1,8 -1,0 13,7 14,7 2 1 4 2 SW 0,1 0 0,0
11.10.2019 05:00:00 2,3 1,9 -0,8 13,8 14,7 2 1 5 3 WSW 20 0 0,0
11.10.2019 04:00:00 2,8 2,2 0,3 13,9 14,7 3 1 6 4 WSW 20 0 0,0
11.10.2019 03:00:00 3,9 3,2 1,5 14,0 14,7 6 3 8 5 SSW 20 0 0,0
11.10.2019 02:00:00 3,8 3,2 0,5 14,1 14,7 0 0 8 4 N 20 0 0,0
11.10.2019 01:00:00 5,0 4,1 3,1 14,2 14,7 4 2 9 5 SW 20 0 0,0
11.10.2019 00:00:00 5,1 4,1 2,5 14,2 14,7 5 3 9 5 SW 20 0 0,0
10.10.2019 23:00:00 5,8 4,8 4,2 14,2 14,7 6 3 8 4 SW 20 0 0,0
10.10.2019 22:00:00 7,2 5,3 3,8 14,2 14,7 7 4 9 5 SW 20 0 0,0
10.10.2019 21:00:00 7,9 5,4 4,7 14,1 14,7 2 1 8 5 WSW 20 0 0,0
10.10.2019 20:00:00 10,0 6,2 8,3 14,0 14,7 5 3 14 8 WSW 20 0 0,0
10.10.2019 19:00:00 12,6 6,8 11,7 13,9 14,7 12 7 23 12 NW 20 22 0,0
10.10.2019 18:00:00 14,5 6,8 15,8 13,7 14,7 14 8 26 14 NW 20 54 0,0
10.10.2019 17:00:00 14,6 6,7 14,7 13,6 14,7 16 8 25 13 NW 20 24 0,0
10.10.2019 16:00:00 15,5 6,2 18,2 13,5 14,7 12 7 36 20 NW 20 46 0,0
10.10.2019 15:00:00 14,4 5,7 16,6 13,4 14,7 17 9 34 18 NW 20 51 0,0
10.10.2019 14:00:00 14,0 5,9 16,3 13,4 14,7 21 11 37 20 WNW 20 48 0,0
10.10.2019 13:00:00 14,2 5,0 15,8 13,5 14,7 19 10 36 19 WNW 20 47 0,0
10.10.2019 12:00:00 12,7 5,8 15,7 13,5 14,7 17 9 34 18 WNW 20 55 0,0
10.10.2019 11:00:00 11,0 6,7 13,0 13,6 14,7 13 7 25 13 WNW 20 38 0,0
10.10.2019 10:00:00 10,6 7,1 10,2 13,7 14,7 2 1 10 5 NNE 20 29 0,0
10.10.2019 09:00:00 8,7 6,8 5,6 13,8 14,7 5 3 11 6 W 20 23 0,0
10.10.2019 08:00:00 6,1 5,4 2,7 13,9 14,7 2 1 5 3 W 20 0 0,0
10.10.2019 07:00:00 5,4 4,2 2,8 13,9 14,7 3 1 14 7 NNE 20 0 0,0
10.10.2019 06:00:00 7,3 5,9 5,1 14,1 14,8 8 4 11 6 WSW 20 0 0,0
10.10.2019 05:00:00 7,7 6,3 6,8 14,1 14,7 2 1 8 4 SSW 20 0 0,0
10.10.2019 04:00:00 8,4 6,5 6,5 14,3 14,8 0 0 6 4 N 20 0 0,0
10.10.2019 03:00:00 7,8 6,3 6,4 14,3 14,7 0 0 9 5 N 20 0 0,0
10.10.2019 02:00:00 6,8 5,6 4,3 14,4 14,8 4 2 8 5 SW 20 0 0,0
10.10.2019 01:00:00 6,8 5,6 3,1 14,4 14,7 3 2 5 3 W 20 0 0,0
10.10.2019 00:00:00 7,7 5,8 6,2 14,5 14,8 2 1 7 4 WNW 20 0 0,0
09.10.2019 23:00:00 8,9 6,3 7,1 14,5 14,8 2 1 7 4 W 20 0 0,0
09.10.2019 22:00:00 9,5 6,6 7,1 14,5 14,8 2 1 9 5 SW 20 0 0,0
09.10.2019 21:00:00 8,6 6,0 7,0 14,5 14,8 6 3 9 5 SW 20 0 0,0
09.10.2019 20:00:00 8,9 6,5 7,1 14,5 14,8 5 3 9 5 SSW 20 0 0,0
09.10.2019 19:00:00 11,7 7,0 10,6 14,3 14,8 0 0 17 9 N 18 44 0,0
09.10.2019 18:00:00 12,6 7,7 13,5 14,3 14,8 8 4 23 13 W 20 23 0,0
09.10.2019 17:00:00 12,8 8,1 13,7 14,2 14,8 15 8 33 18 WNW 20 14 0,0
09.10.2019 16:00:00 14,1 7,4 15,0 14,2 14,8 18 10 37 20 W 20 25 0,0
09.10.2019 15:00:00 14,2 7,3 16,1 14,1 14,8 16 9 43 23 WSW 20 38 0,0
09.10.2019 14:00:00 14,1 6,2 13,7 14,1 14,8 23 12 43 23 WSW 20 51 0,0
09.10.2019 13:00:00 12,2 7,1 13,9 14,2 14,8 17 9 37 20 WSW 20 30 0,0
09.10.2019 12:00:00 12,0 8,3 10,4 14,2 14,8 12 7 26 14 SW 20 9 0,6
09.10.2019 11:00:00 10,2 8,3 9,5 14,2 14,8 4 2 17 9 W 20 0 0,4
09.10.2019 10:00:00 10,1 7,5 9,3 14,2 14,8 9 5 19 11 WNW 19 0 0,2
09.10.2019 09:00:00 10,4 7,5 10,7 14,2 14,8 13 7 31 17 W 20 0 0,0
09.10.2019 08:00:00 11,8 8,5 11,7 14,2 14,8 18 10 34 18 WNW 20 0 0,0
09.10.2019 07:00:00 14,8 11,4 14,6 14,2 14,8 8 4 18 10 W 20 0 0,0
09.10.2019 06:00:00 14,8 11,0 14,5 14,3 14,8 4 2 25 14 SSW 20 0 0,0
09.10.2019 05:00:00 15,5 11,1 14,0 14,3 14,8 10 6 18 10 SW 20 0 0,0
09.10.2019 04:00:00 15,5 8,7 14,6 14,3 14,8 3 2 9 5 NNE 20 0 0,0
09.10.2019 03:00:00 16,0 8,5 15,2 14,2 14,8 3 2 14 8 WSW 20 0 0,0
09.10.2019 02:00:00 16,4 9,6 13,7 14,2 14,8 6 3 15 8 W 20 0 0,0
09.10.2019 01:00:00 15,7 10,7 13,1 14,1 14,8 5 3 13 7 SSW 20 0 0,0
09.10.2019 00:00:00 16,0 11,0 13,6 14,1 14,8 2 1 18 10 SSW 20 0 0,0
08.10.2019 23:00:00 16,8 11,5 15,7 14,0 14,8 10 5 21 11 SW 20 0 0,0
08.10.2019 22:00:00 16,6 11,5 16,0 13,9 14,8 10 5 24 13 W 20 0 0,0
08.10.2019 21:00:00 18,6 12,1 18,2 13,7 14,8 14 8 25 13 WSW 20 0 0,0
08.10.2019 20:00:00 19,3 12,8 19,1 13,5 14,8 14 8 31 17 WSW 20 0 0,0
08.10.2019 19:00:00 20,1 12,6 19,9 13,3 14,8 18 10 37 20 WSW 20 7 0,0
08.10.2019 18:00:00 22,3 13,1 23,0 13,1 14,8 16 9 34 18 W 20 58 0,0
08.10.2019 17:00:00 23,9 12,5 26,3 12,9 14,8 14 8 33 18 W 20 56 0,0
08.10.2019 16:00:00 24,3 12,6 25,3 12,8 14,8 14 8 35 19 SW 20 58 0,0
08.10.2019 15:00:00 23,3 11,7 25,4 12,7 14,8 0 0 10 5 N 20 47 0,0
08.10.2019 14:00:00 21,3 11,0 26,9 12,6 14,8 5 3 12 7 E 20 60 0,0

tt = temperature
td = dewpoint
tt 5cm = temperature 5cm
tt -20cm = temperature -20cm
tt -100cm = temperature -100cm
ff = wind speed
fx = gusts
dd = wind direction
vv = visibility
sd = sunshine duration
rr = precipitation

Next stations